Main page
METAR-TAF:

METAR-TAF

Airports :

Port Isabel-Cameron County Airport

Port Isabel, Texas, United States

latitude: 26-09-33N, longitude: 097-20-15W, elevation: 16 ft

Current weather observation

The report was made 49 minutes ago, at 17:53 UTC
Wind 14 mph from the East with gusts up to 23 mph
Temperature 91°F
Humidity 59%
Pressure 29.89 in. Hg
Visibility: 10 miles
Clear sky

METAR: KPIL 141753Z AUTO 08012G20KT 10SM CLR 33/24 A2989 RMK AO2 SLP122 T03280244 10333 20250 58007

Time: 13:42 (18:42 UTC)


TAF: missing

Weather observations and forecasts of more than 4000 airports (METAR and TAF reports).

The available stations are represented by yellow and red dots on the map.

Hover mouse over dot to see the name of the station.

Then click to see weather observations and forecasts.

To change the map : click on the green buttons with a black cross to zoom in, on the green button with a dash to zoom out, or on the green arrows for adjacent maps.


METAR-TAF: